Aérodrome :
LOGIN :

S'inscrire | Disclaimer

   EN    FR    IT 

 










Légende :    VFR   VFR Marginal   IFR   IFR Intensif   IFR Très Intensif
Visi : 
Plafond : 
>= 8 km
>= 3000ft
5 à 8 km
1000 à 3000 ft
1500m à 5 km
500 à 1000 ft
800 à 1500m
200 à 500 ft
< 800m
< 200 ft
Symboles :   Orages  Brouillard  Fortes neiges  Fortes précipitations  Vent > 20 kt
SIGMETs :   Divers  Orages  Givrage  Turbulence  Onde Orograph.  Cendres Volcan.







- Altitude de l'aérodrome : 1847 ft
- Code IATA : IAM


DAUZ - In Amenas

DERNIER METAR :
  • 190300Z 04012KT 8000 NSC 27/05 Q1014

METARs EXPIRÉS :
  • 190200Z 07012KT 8000 NSC 29/05 Q1013
  • 190100Z 05016KT 8000 NSC 31/05 Q1013

TAF TAF DAUZ
Valide du 19 à 00h jusqu'au 20 à 00h UTC


182300Z 1900/1924 06014KT 8000 NSC
PROB40 1901/1908 10024KT 3000 DRSA
Pas de NOTAMs connus pour ce terrain.



MET'MAP, la Météo Aéronautique d'un coup d'oeil ! - Copyright ORBIFLY Décembre 2007 - Disclaimer

ORBIFLY MET'MAP TEAM :

Programmation & Développement : Alexandra Zaïnal
Conception & Développement : Baudouin d'Aumeries
Co-Programmation & Développement : Marc-Olivier Méhu
Soutien technique & logistique : Manuel Goepfert

Contact : metmap@orbifly.com




SOURCES & CREDITS :

   NOAA